createdAt,value
2017-09-02T00:00:05.018Z,4.80
2017-09-02T00:02:33.259Z,5.67
2017-09-02T00:05:01.499Z,5.53
2017-09-02T00:07:29.783Z,6.63
2017-09-02T00:09:58.026Z,6.00
2017-09-02T00:12:26.274Z,5.10
2017-09-02T00:14:54.545Z,4.43
2017-09-02T00:17:22.783Z,5.03
2017-09-02T00:19:51.022Z,5.30
2017-09-02T00:22:19.767Z,5.00
2017-09-02T00:24:48.402Z,5.33
2017-09-02T00:27:17.410Z,4.60
2017-09-02T00:29:46.442Z,5.03
2017-09-02T00:32:14.686Z,5.00
2017-09-02T00:34:42.921Z,5.17
2017-09-02T00:37:11.186Z,5.30
2017-09-02T00:39:39.428Z,5.50
2017-09-02T00:42:07.674Z,5.90
2017-09-02T00:44:36.966Z,6.03
2017-09-02T00:47:05.358Z,6.53
2017-09-02T00:49:34.369Z,8.90
2017-09-02T00:52:02.721Z,5.23
2017-09-02T00:54:30.964Z,5.60
2017-09-02T00:56:59.227Z,5.50
2017-09-02T00:59:27.494Z,5.47
2017-09-02T01:01:55.752Z,5.60
2017-09-02T01:04:23.982Z,5.40
2017-09-02T01:06:52.431Z,9.47
2017-09-02T01:09:20.669Z,6.10
2017-09-02T01:11:48.910Z,6.70
2017-09-02T01:14:17.179Z,6.70
2017-09-02T01:16:45.417Z,6.13
2017-09-02T01:19:13.658Z,5.53
2017-09-02T01:21:41.926Z,6.40
2017-09-02T01:24:10.171Z,6.00
2017-09-02T01:26:38.810Z,6.77
2017-09-02T01:29:08.155Z,14.67
2017-09-02T01:31:36.401Z,9.90
2017-09-02T01:34:05.761Z,8.10
2017-09-02T01:36:34.018Z,7.00
2017-09-02T01:39:02.266Z,7.20
2017-09-02T01:41:30.510Z,7.73
2017-09-02T01:43:58.773Z,7.20
2017-09-02T01:46:27.014Z,5.83
2017-09-02T01:48:55.254Z,9.33
2017-09-02T01:51:23.589Z,6.80
2017-09-02T01:53:51.838Z,5.83
2017-09-02T01:56:20.074Z,7.30
2017-09-02T01:58:48.645Z,6.20
2017-09-02T02:01:16.997Z,6.90
2017-09-02T02:03:45.243Z,6.50
2017-09-02T02:06:13.502Z,6.60
2017-09-02T02:08:41.824Z,6.80
2017-09-02T02:11:10.062Z,6.17
2017-09-02T02:13:38.739Z,7.13
2017-09-02T02:16:08.198Z,6.63
2017-09-02T02:18:36.446Z,7.80
2017-09-02T02:21:04.714Z,8.20
2017-09-02T02:23:32.961Z,7.87
2017-09-02T02:26:01.203Z,7.90
2017-09-02T02:28:29.529Z,6.27
2017-09-02T02:30:57.769Z,7.43
2017-09-02T02:33:26.010Z,6.83
2017-09-02T02:35:54.381Z,7.13
2017-09-02T02:38:22.626Z,6.77
2017-09-02T02:40:51.142Z,7.30
2017-09-02T02:43:19.401Z,6.37
2017-09-02T02:45:47.647Z,7.40
2017-09-02T02:48:15.889Z,7.83
2017-09-02T02:50:44.150Z,6.60
2017-09-02T02:53:12.390Z,7.23
2017-09-02T02:55:40.629Z,7.07
2017-09-02T02:58:09.197Z,7.47
2017-09-02T03:00:37.442Z,7.30
2017-09-02T03:03:05.686Z,7.27
2017-09-02T03:05:33.962Z,8.00
2017-09-02T03:08:02.322Z,7.53
2017-09-02T03:10:30.570Z,7.73
2017-09-02T03:12:58.829Z,8.37
2017-09-02T03:15:27.181Z,7.97
2017-09-02T03:17:56.197Z,6.97
2017-09-02T03:20:24.902Z,7.10
2017-09-02T03:22:53.142Z,7.47
2017-09-02T03:25:21.579Z,7.00
2017-09-02T03:27:49.839Z,8.03
2017-09-02T03:30:18.275Z,8.23
2017-09-02T03:32:46.510Z,7.67
2017-09-02T03:35:14.787Z,7.63
2017-09-02T03:37:43.173Z,8.40
2017-09-02T03:40:11.422Z,7.60
2017-09-02T03:42:40.622Z,7.33
2017-09-02T03:45:08.862Z,7.57
2017-09-02T03:47:37.302Z,7.60
2017-09-02T03:50:05.572Z,8.60
2017-09-02T03:52:33.809Z,7.27
2017-09-02T03:55:02.058Z,7.40
2017-09-02T03:57:30.401Z,8.17
2017-09-02T03:59:58.621Z,7.80
2017-09-02T04:02:26.870Z,7.27
2017-09-02T04:04:55.409Z,7.10
2017-09-02T04:07:23.651Z,7.90
2017-09-02T04:09:51.894Z,8.23
2017-09-02T04:12:20.157Z,7.90
2017-09-02T04:14:48.389Z,7.97
2017-09-02T04:17:16.630Z,7.70
2017-09-02T04:19:44.929Z,7.00
2017-09-02T04:22:13.166Z,7.37
2017-09-02T04:24:41.418Z,7.77
2017-09-02T04:27:10.206Z,7.13
2017-09-02T04:29:38.450Z,6.53
2017-09-02T04:32:06.929Z,7.90
2017-09-02T04:34:35.210Z,6.53
2017-09-02T04:37:03.454Z,7.20
2017-09-02T04:39:31.698Z,8.37
2017-09-02T04:41:59.966Z,7.47
2017-09-02T04:44:28.220Z,7.47
2017-09-02T04:46:57.229Z,7.50
2017-09-02T04:49:25.621Z,8.27
2017-09-02T04:51:53.861Z,7.17
2017-09-02T04:54:22.109Z,6.67
2017-09-02T04:56:50.358Z,6.80
2017-09-02T04:59:18.601Z,6.70
2017-09-02T05:01:46.838Z,7.07
2017-09-02T05:04:15.109Z,7.17
2017-09-02T05:06:44.274Z,6.67
2017-09-02T05:09:12.522Z,7.53
2017-09-02T05:11:40.845Z,6.80
2017-09-02T05:14:09.086Z,7.60
2017-09-02T05:16:37.406Z,6.90
2017-09-02T05:19:05.666Z,6.07
2017-09-02T05:21:33.916Z,7.20
2017-09-02T05:24:02.154Z,6.97
2017-09-02T05:26:30.417Z,7.10
2017-09-02T05:28:58.662Z,6.53
2017-09-02T05:31:27.149Z,7.23
2017-09-02T05:33:56.454Z,6.90
2017-09-02T05:36:24.698Z,6.80
2017-09-02T05:38:52.939Z,7.20
2017-09-02T05:41:21.234Z,7.33
2017-09-02T05:43:49.474Z,6.90
2017-09-02T05:46:17.710Z,6.30
2017-09-02T05:48:45.982Z,7.00
2017-09-02T05:51:14.222Z,7.00
2017-09-02T05:53:42.462Z,5.77
2017-09-02T05:56:11.060Z,7.30
2017-09-02T05:58:39.298Z,6.30
2017-09-02T06:01:07.546Z,6.53
2017-09-02T06:03:35.826Z,5.90
2017-09-02T06:06:04.075Z,6.30
2017-09-02T06:08:32.513Z,6.30
2017-09-02T06:11:00.849Z,5.97
2017-09-02T06:13:29.091Z,6.23
2017-09-02T06:15:57.334Z,6.10
2017-09-02T06:18:25.742Z,6.90
2017-09-02T06:20:54.059Z,6.60
2017-09-02T06:23:22.414Z,6.93
2017-09-02T06:25:50.665Z,5.93
2017-09-02T06:28:18.906Z,6.40
2017-09-02T06:30:47.914Z,6.50
2017-09-02T06:33:16.249Z,5.87
2017-09-02T06:35:44.951Z,6.43
2017-09-02T06:38:13.193Z,6.57
2017-09-02T06:40:41.754Z,6.03
2017-09-02T06:43:10.054Z,6.63
2017-09-02T06:45:38.298Z,5.90
2017-09-02T06:48:06.565Z,6.70
2017-09-02T06:50:34.820Z,6.60
2017-09-02T06:53:03.058Z,6.70
2017-09-02T06:55:31.346Z,6.50
2017-09-02T06:57:59.714Z,6.03
2017-09-02T07:00:27.962Z,6.07
2017-09-02T07:02:56.866Z,5.10
2017-09-02T07:05:25.101Z,5.43
2017-09-02T07:07:54.114Z,5.53
2017-09-02T07:10:22.377Z,6.77
2017-09-02T07:12:50.627Z,5.90
2017-09-02T07:15:18.861Z,6.07
2017-09-02T07:17:47.142Z,5.87
2017-09-02T07:20:15.434Z,5.80
2017-09-02T07:22:43.673Z,5.67
2017-09-02T07:25:12.273Z,6.17
2017-09-02T07:27:40.518Z,5.80
2017-09-02T07:30:08.762Z,5.87
2017-09-02T07:32:37.022Z,6.20
2017-09-02T07:35:05.264Z,5.63
2017-09-02T07:37:33.809Z,6.07
2017-09-02T07:40:02.066Z,5.10
2017-09-02T07:42:30.312Z,5.90
2017-09-02T07:44:58.552Z,5.70
2017-09-02T07:47:27.074Z,5.40
2017-09-02T07:49:55.366Z,5.67
2017-09-02T07:52:23.753Z,6.40
2017-09-02T07:54:52.023Z,5.20
2017-09-02T07:57:20.261Z,4.80
2017-09-02T07:59:48.591Z,5.47
2017-09-02T08:02:16.985Z,5.17
2017-09-02T08:04:45.234Z,4.70
2017-09-02T08:07:13.477Z,4.90
2017-09-02T08:09:41.878Z,4.70
2017-09-02T08:12:10.122Z,5.10
2017-09-02T08:14:38.554Z,5.20
2017-09-02T08:17:06.818Z,4.90
2017-09-02T08:19:35.058Z,5.03
2017-09-02T08:22:03.323Z,4.50
2017-09-02T08:24:31.578Z,4.63
2017-09-02T08:26:59.822Z,4.97
2017-09-02T08:29:28.214Z,4.97
2017-09-02T08:31:56.671Z,5.00
2017-09-02T08:34:25.181Z,5.77
2017-09-02T08:36:53.662Z,5.23
2017-09-02T08:39:22.146Z,4.87
2017-09-02T08:41:51.153Z,4.63
2017-09-02T08:44:19.398Z,4.80
2017-09-02T08:46:49.082Z,4.50
2017-09-02T08:49:17.384Z,4.70
2017-09-02T08:51:45.625Z,5.97
2017-09-02T08:54:14.234Z,4.40
2017-09-02T08:56:42.474Z,5.20
2017-09-02T08:59:10.902Z,5.10
2017-09-02T09:01:39.177Z,5.20
2017-09-02T09:04:07.412Z,4.53
2017-09-02T09:06:35.735Z,4.73
2017-09-02T09:09:05.057Z,5.03
2017-09-02T09:11:33.924Z,5.17
2017-09-02T09:14:03.326Z,5.47
2017-09-02T09:16:31.785Z,5.30
2017-09-02T09:19:00.026Z,4.50
2017-09-02T09:21:28.266Z,4.47
2017-09-02T09:23:56.532Z,4.43
2017-09-02T09:26:24.922Z,4.80
2017-09-02T09:28:53.154Z,3.87
2017-09-02T09:31:21.436Z,4.37
2017-09-02T09:33:49.680Z,4.27
2017-09-02T09:36:18.334Z,4.70
2017-09-02T09:38:46.907Z,5.33
2017-09-02T09:41:15.811Z,5.20
2017-09-02T09:43:44.056Z,4.50
2017-09-02T09:46:13.523Z,5.43
2017-09-02T09:48:42.554Z,5.00
2017-09-02T09:51:11.537Z,5.30
2017-09-02T09:53:39.878Z,5.10
2017-09-02T09:56:08.241Z,5.00
2017-09-02T09:58:36.650Z,5.00
2017-09-02T10:01:05.374Z,5.07
2017-09-02T10:03:33.682Z,4.30
2017-09-02T10:06:01.926Z,5.60
2017-09-02T10:08:30.195Z,5.07
2017-09-02T10:10:58.433Z,4.80
2017-09-02T10:13:26.779Z,5.17
2017-09-02T10:15:55.033Z,5.03
2017-09-02T10:18:23.519Z,5.20
2017-09-02T10:20:52.943Z,5.03
2017-09-02T10:23:21.282Z,4.30
2017-09-02T10:25:49.702Z,5.60
2017-09-02T10:28:17.943Z,4.83
2017-09-02T10:30:46.214Z,4.27
2017-09-02T10:33:14.462Z,4.20
2017-09-02T10:35:42.702Z,4.87
2017-09-02T10:38:10.962Z,4.23
2017-09-02T10:40:39.201Z,4.60
2017-09-02T10:43:08.046Z,5.17
2017-09-02T10:45:36.386Z,4.67
2017-09-02T10:48:04.638Z,4.50
2017-09-02T10:50:33.630Z,3.37
2017-09-02T10:53:02.657Z,4.03
2017-09-02T10:55:30.921Z,4.20
2017-09-02T10:57:59.590Z,4.30
2017-09-02T11:00:27.962Z,4.00
2017-09-02T11:02:56.219Z,4.57
2017-09-02T11:05:24.459Z,3.90
2017-09-02T11:07:53.146Z,4.37
2017-09-02T11:10:21.386Z,3.90
2017-09-02T11:12:49.631Z,4.40
2017-09-02T11:15:17.894Z,4.47
2017-09-02T11:17:46.134Z,3.10
2017-09-02T11:20:14.377Z,4.60
2017-09-02T11:22:42.750Z,3.70
2017-09-02T11:25:11.102Z,4.43
2017-09-02T11:27:39.402Z,3.87
2017-09-02T11:30:08.270Z,3.90
2017-09-02T11:32:36.514Z,3.70
2017-09-02T11:35:04.754Z,4.20
2017-09-02T11:37:33.067Z,3.10
2017-09-02T11:40:01.379Z,3.67
2017-09-02T11:42:29.626Z,3.80
2017-09-02T11:44:58.497Z,3.10
2017-09-02T11:47:26.738Z,3.30
2017-09-02T11:49:55.199Z,3.37
2017-09-02T11:52:23.661Z,3.27
2017-09-02T11:54:51.902Z,3.53
2017-09-02T11:57:20.346Z,3.60
2017-09-02T11:59:48.614Z,4.40
2017-09-02T12:02:16.858Z,3.60
2017-09-02T12:04:45.169Z,3.20
2017-09-02T12:07:13.434Z,3.70
2017-09-02T12:09:41.678Z,3.33
2017-09-02T12:12:09.997Z,2.90
2017-09-02T12:14:39.074Z,3.00
2017-09-02T12:17:07.370Z,3.23
2017-09-02T12:19:35.758Z,2.80
2017-09-02T12:22:06.003Z,3.00
2017-09-02T12:24:34.358Z,3.43
2017-09-02T12:27:02.735Z,3.07
2017-09-02T12:29:30.996Z,3.07
2017-09-02T12:31:59.234Z,2.80
2017-09-02T12:34:27.559Z,3.30
2017-09-02T12:36:56.330Z,3.57
2017-09-02T12:39:24.565Z,3.90
2017-09-02T12:41:52.810Z,2.90
2017-09-02T12:44:21.118Z,3.90
2017-09-02T12:46:50.449Z,2.80
2017-09-02T12:49:18.686Z,2.93
2017-09-02T12:51:46.954Z,2.50
2017-09-02T12:54:15.221Z,3.20
2017-09-02T12:56:43.467Z,2.37
2017-09-02T12:59:11.874Z,2.93
2017-09-02T13:01:40.126Z,2.80
2017-09-02T13:04:08.379Z,2.90
2017-09-02T13:06:36.633Z,2.77
2017-09-02T13:09:04.882Z,3.10
2017-09-02T13:11:33.118Z,2.50
2017-09-02T13:14:01.386Z,2.63
2017-09-02T13:16:29.783Z,2.00
2017-09-02T13:18:58.019Z,2.70
2017-09-02T13:21:26.338Z,2.67
2017-09-02T13:23:54.614Z,3.20
2017-09-02T13:26:25.146Z,3.37
2017-09-02T13:28:53.414Z,2.53
2017-09-02T13:31:21.817Z,2.83
2017-09-02T13:33:50.058Z,2.50
2017-09-02T13:36:19.586Z,3.30
2017-09-02T13:38:47.826Z,2.40
2017-09-02T13:41:16.066Z,2.83
2017-09-02T13:43:44.466Z,3.10
2017-09-02T13:46:12.719Z,2.43
2017-09-02T13:48:41.153Z,2.50
2017-09-02T13:51:09.496Z,3.47
2017-09-02T13:53:37.839Z,2.60
2017-09-02T13:56:06.086Z,2.53
2017-09-02T13:58:34.349Z,2.20
2017-09-02T14:01:02.708Z,2.63
2017-09-02T14:03:32.025Z,2.63
2017-09-02T14:06:03.198Z,3.33
2017-09-02T14:08:31.496Z,2.23
2017-09-02T14:10:59.873Z,2.40
2017-09-02T14:13:28.278Z,3.00
2017-09-02T14:15:56.645Z,2.87
2017-09-02T14:18:25.394Z,2.60
2017-09-02T14:20:53.666Z,3.13
2017-09-02T14:23:21.902Z,3.30
2017-09-02T14:25:51.073Z,2.80
2017-09-02T14:28:23.256Z,2.70
2017-09-02T14:30:51.514Z,3.13
2017-09-02T14:33:19.892Z,3.10
2017-09-02T14:35:48.150Z,2.93
2017-09-02T14:38:16.554Z,3.03
2017-09-02T14:40:44.781Z,2.60
2017-09-02T14:43:13.139Z,2.80
2017-09-02T14:45:41.535Z,3.37
2017-09-02T14:48:09.775Z,2.70
2017-09-02T14:50:38.654Z,2.80
2017-09-02T14:53:06.926Z,2.60
2017-09-02T14:55:36.136Z,2.40
2017-09-02T14:58:04.382Z,2.43
2017-09-02T15:00:32.685Z,2.10
2017-09-02T15:03:00.918Z,2.57
2017-09-02T15:05:29.182Z,2.67
2017-09-02T15:07:57.522Z,2.73
2017-09-02T15:10:25.898Z,2.50
2017-09-02T15:12:54.377Z,2.60
2017-09-02T15:15:22.629Z,2.87
2017-09-02T15:17:50.861Z,2.67
2017-09-02T15:20:19.130Z,2.83
2017-09-02T15:22:48.138Z,2.33
2017-09-02T15:25:17.141Z,2.57
2017-09-02T15:27:45.566Z,2.50
2017-09-02T15:30:13.806Z,2.40
2017-09-02T15:32:42.230Z,3.13
2017-09-02T15:35:10.589Z,2.33
2017-09-02T15:37:38.982Z,2.80
2017-09-02T15:40:07.226Z,3.13
2017-09-02T15:42:35.501Z,2.70
2017-09-02T15:45:03.738Z,3.30
2017-09-02T15:47:31.981Z,2.97
2017-09-02T15:50:00.242Z,2.77
2017-09-02T15:52:28.638Z,3.40
2017-09-02T15:54:57.018Z,2.90
2017-09-02T15:57:25.471Z,2.20
2017-09-02T15:59:53.776Z,2.10
2017-09-02T16:02:22.009Z,2.63
2017-09-02T16:04:50.278Z,2.73
2017-09-02T16:07:19.285Z,2.90
2017-09-02T16:09:47.533Z,3.20
2017-09-02T16:12:16.014Z,2.23
2017-09-02T16:14:45.471Z,2.90
2017-09-02T16:17:13.694Z,2.20
2017-09-02T16:19:43.056Z,2.27
2017-09-02T16:22:11.342Z,2.33
2017-09-02T16:24:39.726Z,2.53
2017-09-02T16:27:08.515Z,2.50
2017-09-02T16:29:36.798Z,2.50
2017-09-02T16:32:05.162Z,2.20
2017-09-02T16:34:33.582Z,2.80
2017-09-02T16:37:05.926Z,3.03
2017-09-02T16:39:34.398Z,2.20
2017-09-02T16:42:02.862Z,2.73
2017-09-02T16:44:33.202Z,2.87
2017-09-02T16:47:03.471Z,2.50
2017-09-02T16:49:31.837Z,3.00
2017-09-02T16:52:00.183Z,2.67
2017-09-02T16:54:29.381Z,2.33
2017-09-02T16:56:58.794Z,2.67
2017-09-02T16:59:28.288Z,2.33
2017-09-02T17:01:56.593Z,2.27
2017-09-02T17:04:24.845Z,2.80
2017-09-02T17:06:54.354Z,2.30
2017-09-02T17:09:23.786Z,2.70
2017-09-02T17:11:53.058Z,2.50
2017-09-02T17:14:22.354Z,2.87
2017-09-02T17:16:50.759Z,2.37
2017-09-02T17:19:19.117Z,2.47
2017-09-02T17:21:47.591Z,2.60
2017-09-02T17:24:16.029Z,2.90
2017-09-02T17:26:45.494Z,2.73
2017-09-02T17:29:13.870Z,4.83
2017-09-02T17:31:42.174Z,2.97
2017-09-02T17:34:11.177Z,5.27
2017-09-02T17:36:39.606Z,2.80
2017-09-02T17:39:08.050Z,2.60
2017-09-02T17:41:36.294Z,3.13
2017-09-02T17:44:04.531Z,3.57
2017-09-02T17:46:32.854Z,2.60
2017-09-02T17:49:01.402Z,2.90
2017-09-02T17:51:29.626Z,3.30
2017-09-02T17:54:01.968Z,3.20
2017-09-02T17:56:30.934Z,2.47
2017-09-02T17:58:59.177Z,3.00
2017-09-02T18:01:27.445Z,3.17
2017-09-02T18:03:55.688Z,3.57
2017-09-02T18:06:23.933Z,3.93
2017-09-02T18:08:52.341Z,4.23
2017-09-02T18:11:20.569Z,2.70
2017-09-02T18:13:48.810Z,2.47
2017-09-02T18:16:17.070Z,2.30
2017-09-02T18:18:45.310Z,3.90
2017-09-02T18:21:14.734Z,3.67
2017-09-02T18:23:43.145Z,2.47
2017-09-02T18:26:11.579Z,3.27
2017-09-02T18:28:39.954Z,2.97
2017-09-02T18:31:08.337Z,3.00
2017-09-02T18:33:36.583Z,3.00
2017-09-02T18:36:04.818Z,2.90
2017-09-02T18:38:33.230Z,3.00
2017-09-02T18:41:01.474Z,2.53
2017-09-02T18:43:29.728Z,2.70
2017-09-02T18:45:57.982Z,2.60
2017-09-02T18:48:26.226Z,2.90
2017-09-02T18:50:54.666Z,2.80
2017-09-02T18:53:23.434Z,3.13
2017-09-02T18:55:51.675Z,2.63
2017-09-02T18:58:20.149Z,4.10
2017-09-02T19:00:49.178Z,2.90
2017-09-02T19:03:17.442Z,2.37
2017-09-02T19:05:45.666Z,3.17
2017-09-02T19:08:13.968Z,3.57
2017-09-02T19:10:42.209Z,3.57
2017-09-02T19:13:10.447Z,3.20
2017-09-02T19:15:39.158Z,2.53
2017-09-02T19:18:07.390Z,3.50
2017-09-02T19:20:35.636Z,2.90
2017-09-02T19:23:03.902Z,2.70
2017-09-02T19:25:32.138Z,2.80
2017-09-02T19:28:00.386Z,3.53
2017-09-02T19:30:28.641Z,3.63
2017-09-02T19:32:56.879Z,3.20
2017-09-02T19:35:25.122Z,2.83
2017-09-02T19:37:53.881Z,3.33
2017-09-02T19:40:22.140Z,2.50
2017-09-02T19:42:50.397Z,3.40
2017-09-02T19:45:18.642Z,2.90
2017-09-02T19:47:46.891Z,3.40
2017-09-02T19:50:15.126Z,3.83
2017-09-02T19:52:43.613Z,3.10
2017-09-02T19:55:11.880Z,3.50
2017-09-02T19:57:40.305Z,3.40
2017-09-02T20:00:09.090Z,3.30
2017-09-02T20:02:37.334Z,3.13
2017-09-02T20:05:05.565Z,3.03
2017-09-02T20:07:33.826Z,3.40
2017-09-02T20:10:02.065Z,3.30
2017-09-02T20:12:30.306Z,3.47
2017-09-02T20:14:58.570Z,3.83
2017-09-02T20:17:26.818Z,3.33
2017-09-02T20:19:55.061Z,3.47
2017-09-02T20:22:23.370Z,4.00
2017-09-02T20:24:51.619Z,3.57
2017-09-02T20:27:19.855Z,4.40
2017-09-02T20:29:48.126Z,3.47
2017-09-02T20:32:16.364Z,3.90
2017-09-02T20:34:44.746Z,3.50
2017-09-02T20:37:13.011Z,3.43
2017-09-02T20:39:41.257Z,4.30
2017-09-02T20:42:09.490Z,3.40
2017-09-02T20:44:38.035Z,3.00
2017-09-02T20:47:06.274Z,3.77
2017-09-02T20:49:34.513Z,3.20
2017-09-02T20:52:02.789Z,4.23
2017-09-02T20:54:31.173Z,4.17
2017-09-02T20:56:59.422Z,5.37
2017-09-02T20:59:27.681Z,3.80
2017-09-02T21:01:56.603Z,4.00
2017-09-02T21:04:24.841Z,3.90
2017-09-02T21:06:53.159Z,3.97
2017-09-02T21:09:22.162Z,4.57
2017-09-02T21:11:54.453Z,4.53
2017-09-02T21:14:22.685Z,4.20
2017-09-02T21:16:50.940Z,4.20
2017-09-02T21:19:19.546Z,4.33
2017-09-02T21:21:47.782Z,4.57
2017-09-02T21:24:16.014Z,4.63
2017-09-02T21:26:44.738Z,4.03
2017-09-02T21:29:13.799Z,3.97
2017-09-02T21:31:42.021Z,6.70
2017-09-02T21:34:10.303Z,3.70
2017-09-02T21:36:38.542Z,3.93
2017-09-02T21:39:06.774Z,4.10
2017-09-02T21:41:35.050Z,4.77
2017-09-02T21:44:03.289Z,4.20
2017-09-02T21:46:31.734Z,3.83
2017-09-02T21:49:00.225Z,4.10
2017-09-02T21:51:28.463Z,3.70
2017-09-02T21:53:56.701Z,4.40
2017-09-02T21:56:24.962Z,4.17
2017-09-02T21:58:53.205Z,3.90
2017-09-02T22:01:21.446Z,5.30
2017-09-02T22:03:50.750Z,4.93
2017-09-02T22:06:18.993Z,5.03
2017-09-02T22:08:47.486Z,4.93
2017-09-02T22:11:16.829Z,5.07
2017-09-02T22:13:45.075Z,4.83
2017-09-02T22:16:13.317Z,5.10
2017-09-02T22:18:41.590Z,5.30
2017-09-02T22:21:09.822Z,5.03
2017-09-02T22:23:38.097Z,5.20
2017-09-02T22:26:06.450Z,5.30
2017-09-02T22:28:35.466Z,5.47
2017-09-02T22:31:03.710Z,6.30
2017-09-02T22:33:32.251Z,5.10
2017-09-02T22:36:00.586Z,5.10
2017-09-02T22:38:29.602Z,5.50
2017-09-02T22:40:57.950Z,4.70
2017-09-02T22:43:26.194Z,5.37
2017-09-02T22:45:54.435Z,5.20
2017-09-02T22:48:22.705Z,6.60
2017-09-02T22:50:50.954Z,7.47
2017-09-02T22:53:19.199Z,5.73
2017-09-02T22:55:47.662Z,5.70
2017-09-02T22:58:15.898Z,6.20
2017-09-02T23:00:44.137Z,6.67
2017-09-02T23:03:12.408Z,6.57
2017-09-02T23:05:40.822Z,7.03
2017-09-02T23:08:09.254Z,10.50
2017-09-02T23:10:37.526Z,7.07
2017-09-02T23:13:05.761Z,6.63
2017-09-02T23:15:34.005Z,11.63
2017-09-02T23:18:02.334Z,6.30
2017-09-02T23:20:30.566Z,7.53
2017-09-02T23:22:58.814Z,5.97
2017-09-02T23:25:27.237Z,7.77
2017-09-02T23:27:55.486Z,7.20
2017-09-02T23:30:23.722Z,6.27
2017-09-02T23:32:52.110Z,6.60
2017-09-02T23:35:20.349Z,6.50
2017-09-02T23:37:48.591Z,6.93
2017-09-02T23:40:17.002Z,7.13
2017-09-02T23:42:45.246Z,7.37
2017-09-02T23:45:13.487Z,7.27
2017-09-02T23:47:41.754Z,8.80
2017-09-02T23:50:09.990Z,6.97
2017-09-02T23:52:38.233Z,7.20
2017-09-02T23:55:06.498Z,7.33
2017-09-02T23:57:34.738Z,6.93
